sensor_id;sensor_type;location;lat;lon;timestamp;P1;durP1;ratioP1;P2;durP2;ratioP2
14139;SDS011;7150;53.514;9.988;2024-01-06T00:02:21;5.53;;;3.37;;
14139;SDS011;7150;53.514;9.988;2024-01-06T00:04:47;4.20;;;3.17;;
14139;SDS011;7150;53.514;9.988;2024-01-06T00:07:12;4.17;;;3.10;;
14139;SDS011;7150;53.514;9.988;2024-01-06T00:09:39;4.60;;;3.20;;
14139;SDS011;7150;53.514;9.988;2024-01-06T00:12:04;4.40;;;3.00;;
14139;SDS011;7150;53.514;9.988;2024-01-06T00:14:30;6.60;;;3.40;;
14139;SDS011;7150;53.514;9.988;2024-01-06T00:16:56;6.00;;;3.93;;
14139;SDS011;7150;53.514;9.988;2024-01-06T00:19:21;5.77;;;3.67;;
14139;SDS011;7150;53.514;9.988;2024-01-06T00:21:47;6.43;;;3.20;;
14139;SDS011;7150;53.514;9.988;2024-01-06T00:24:12;4.33;;;3.30;;
14139;SDS011;7150;53.514;9.988;2024-01-06T00:26:38;5.77;;;3.43;;
14139;SDS011;7150;53.514;9.988;2024-01-06T00:29:03;5.60;;;3.67;;
14139;SDS011;7150;53.514;9.988;2024-01-06T00:31:29;5.50;;;3.40;;
14139;SDS011;7150;53.514;9.988;2024-01-06T00:33:54;4.03;;;3.10;;
14139;SDS011;7150;53.514;9.988;2024-01-06T00:36:20;4.77;;;3.00;;
14139;SDS011;7150;53.514;9.988;2024-01-06T00:38:45;4.73;;;3.10;;
14139;SDS011;7150;53.514;9.988;2024-01-06T00:41:11;5.33;;;3.40;;
14139;SDS011;7150;53.514;9.988;2024-01-06T00:43:36;5.70;;;3.23;;
14139;SDS011;7150;53.514;9.988;2024-01-06T00:46:02;5.57;;;2.90;;
14139;SDS011;7150;53.514;9.988;2024-01-06T00:48:27;5.03;;;3.50;;
14139;SDS011;7150;53.514;9.988;2024-01-06T00:50:53;5.57;;;3.47;;
14139;SDS011;7150;53.514;9.988;2024-01-06T00:53:18;5.13;;;3.67;;
14139;SDS011;7150;53.514;9.988;2024-01-06T00:55:44;6.47;;;3.43;;
14139;SDS011;7150;53.514;9.988;2024-01-06T00:58:09;6.83;;;3.50;;
14139;SDS011;7150;53.514;9.988;2024-01-06T01:00:35;5.37;;;3.70;;
14139;SDS011;7150;53.514;9.988;2024-01-06T01:03:00;6.50;;;4.17;;
14139;SDS011;7150;53.514;9.988;2024-01-06T01:05:26;4.33;;;3.07;;
14139;SDS011;7150;53.514;9.988;2024-01-06T01:07:51;4.77;;;3.07;;
14139;SDS011;7150;53.514;9.988;2024-01-06T01:10:17;4.03;;;3.07;;
14139;SDS011;7150;53.514;9.988;2024-01-06T01:12:42;4.87;;;3.37;;
14139;SDS011;7150;53.514;9.988;2024-01-06T01:15:08;6.07;;;3.60;;
14139;SDS011;7150;53.514;9.988;2024-01-06T01:17:33;5.53;;;3.50;;
14139;SDS011;7150;53.514;9.988;2024-01-06T01:19:59;3.90;;;3.07;;
14139;SDS011;7150;53.514;9.988;2024-01-06T01:22:24;6.13;;;3.47;;
14139;SDS011;7150;53.514;9.988;2024-01-06T01:24:50;4.83;;;3.23;;
14139;SDS011;7150;53.514;9.988;2024-01-06T01:27:15;5.47;;;3.17;;
14139;SDS011;7150;53.514;9.988;2024-01-06T01:29:41;5.40;;;3.13;;
14139;SDS011;7150;53.514;9.988;2024-01-06T01:32:06;5.00;;;3.53;;
14139;SDS011;7150;53.514;9.988;2024-01-06T01:34:32;6.00;;;3.40;;
14139;SDS011;7150;53.514;9.988;2024-01-06T01:36:57;4.80;;;3.20;;
14139;SDS011;7150;53.514;9.988;2024-01-06T01:39:24;5.23;;;3.33;;
14139;SDS011;7150;53.514;9.988;2024-01-06T01:41:49;4.57;;;3.40;;
14139;SDS011;7150;53.514;9.988;2024-01-06T01:44:15;4.83;;;3.43;;
14139;SDS011;7150;53.514;9.988;2024-01-06T01:46:41;4.93;;;3.27;;
14139;SDS011;7150;53.514;9.988;2024-01-06T01:49:06;6.40;;;4.13;;
14139;SDS011;7150;53.514;9.988;2024-01-06T01:51:33;7.30;;;3.97;;
14139;SDS011;7150;53.514;9.988;2024-01-06T01:54:01;4.60;;;3.20;;
14139;SDS011;7150;53.514;9.988;2024-01-06T01:56:29;4.83;;;3.57;;
14139;SDS011;7150;53.514;9.988;2024-01-06T01:58:59;5.03;;;3.87;;
14139;SDS011;7150;53.514;9.988;2024-01-06T02:01:30;4.77;;;3.40;;
14139;SDS011;7150;53.514;9.988;2024-01-06T02:03:56;5.20;;;3.73;;
14139;SDS011;7150;53.514;9.988;2024-01-06T02:06:22;7.10;;;3.73;;
14139;SDS011;7150;53.514;9.988;2024-01-06T02:08:48;5.27;;;3.57;;
14139;SDS011;7150;53.514;9.988;2024-01-06T02:11:14;5.83;;;3.57;;
14139;SDS011;7150;53.514;9.988;2024-01-06T02:13:39;5.87;;;4.03;;
14139;SDS011;7150;53.514;9.988;2024-01-06T02:16:05;7.13;;;3.97;;
14139;SDS011;7150;53.514;9.988;2024-01-06T02:18:31;5.70;;;3.97;;
14139;SDS011;7150;53.514;9.988;2024-01-06T02:20:57;5.27;;;3.77;;
14139;SDS011;7150;53.514;9.988;2024-01-06T02:23:25;6.57;;;4.00;;
14139;SDS011;7150;53.514;9.988;2024-01-06T02:25:50;6.40;;;4.00;;
14139;SDS011;7150;53.514;9.988;2024-01-06T02:28:16;6.43;;;4.30;;
14139;SDS011;7150;53.514;9.988;2024-01-06T02:30:41;6.80;;;3.87;;
14139;SDS011;7150;53.514;9.988;2024-01-06T02:33:07;5.07;;;3.30;;
14139;SDS011;7150;53.514;9.988;2024-01-06T02:35:33;5.73;;;3.83;;
14139;SDS011;7150;53.514;9.988;2024-01-06T02:37:58;5.53;;;3.77;;
14139;SDS011;7150;53.514;9.988;2024-01-06T02:40:24;5.60;;;4.07;;
14139;SDS011;7150;53.514;9.988;2024-01-06T02:42:49;4.93;;;3.63;;
14139;SDS011;7150;53.514;9.988;2024-01-06T02:45:15;6.33;;;4.10;;
14139;SDS011;7150;53.514;9.988;2024-01-06T02:47:40;6.17;;;3.77;;
14139;SDS011;7150;53.514;9.988;2024-01-06T02:50:06;5.17;;;3.60;;
14139;SDS011;7150;53.514;9.988;2024-01-06T02:52:32;7.53;;;4.20;;
14139;SDS011;7150;53.514;9.988;2024-01-06T02:54:57;6.53;;;4.03;;
14139;SDS011;7150;53.514;9.988;2024-01-06T02:57:23;6.37;;;3.70;;
14139;SDS011;7150;53.514;9.988;2024-01-06T02:59:48;6.07;;;3.80;;
14139;SDS011;7150;53.514;9.988;2024-01-06T03:02:14;6.27;;;3.80;;
14139;SDS011;7150;53.514;9.988;2024-01-06T03:04:39;5.80;;;3.97;;
14139;SDS011;7150;53.514;9.988;2024-01-06T03:07:05;5.37;;;3.43;;
14139;SDS011;7150;53.514;9.988;2024-01-06T03:09:30;5.93;;;3.40;;
14139;SDS011;7150;53.514;9.988;2024-01-06T03:11:56;6.43;;;4.10;;
14139;SDS011;7150;53.514;9.988;2024-01-06T03:14:22;5.50;;;3.80;;
14139;SDS011;7150;53.514;9.988;2024-01-06T03:16:47;6.47;;;3.93;;
14139;SDS011;7150;53.514;9.988;2024-01-06T03:19:12;5.40;;;4.20;;
14139;SDS011;7150;53.514;9.988;2024-01-06T03:21:38;6.97;;;3.43;;
14139;SDS011;7150;53.514;9.988;2024-01-06T03:24:04;5.43;;;3.90;;
14139;SDS011;7150;53.514;9.988;2024-01-06T03:26:29;5.80;;;3.73;;
14139;SDS011;7150;53.514;9.988;2024-01-06T03:28:55;5.70;;;3.57;;
14139;SDS011;7150;53.514;9.988;2024-01-06T03:31:21;5.20;;;3.47;;
14139;SDS011;7150;53.514;9.988;2024-01-06T03:33:47;4.27;;;3.20;;
14139;SDS011;7150;53.514;9.988;2024-01-06T03:36:13;4.97;;;3.53;;
14139;SDS011;7150;53.514;9.988;2024-01-06T03:38:40;4.77;;;3.30;;
14139;SDS011;7150;53.514;9.988;2024-01-06T03:41:06;4.97;;;3.50;;
14139;SDS011;7150;53.514;9.988;2024-01-06T03:43:31;5.60;;;3.50;;
14139;SDS011;7150;53.514;9.988;2024-01-06T03:45:57;5.40;;;3.40;;
14139;SDS011;7150;53.514;9.988;2024-01-06T03:48:25;5.70;;;3.80;;
14139;SDS011;7150;53.514;9.988;2024-01-06T03:50:50;5.93;;;3.67;;
14139;SDS011;7150;53.514;9.988;2024-01-06T03:53:16;5.57;;;3.87;;
14139;SDS011;7150;53.514;9.988;2024-01-06T03:55:41;5.83;;;3.70;;
14139;SDS011;7150;53.514;9.988;2024-01-06T03:58:07;4.03;;;3.30;;
14139;SDS011;7150;53.514;9.988;2024-01-06T04:00:32;5.13;;;3.40;;
14139;SDS011;7150;53.514;9.988;2024-01-06T04:02:57;5.50;;;3.43;;
14139;SDS011;7150;53.514;9.988;2024-01-06T04:05:23;5.73;;;4.00;;
14139;SDS011;7150;53.514;9.988;2024-01-06T04:07:48;4.70;;;3.60;;
14139;SDS011;7150;53.514;9.988;2024-01-06T04:10:14;5.43;;;3.40;;
14139;SDS011;7150;53.514;9.988;2024-01-06T04:12:40;4.00;;;3.30;;
14139;SDS011;7150;53.514;9.988;2024-01-06T04:15:05;6.23;;;3.70;;
14139;SDS011;7150;53.514;9.988;2024-01-06T04:17:31;6.03;;;4.33;;
14139;SDS011;7150;53.514;9.988;2024-01-06T04:19:57;6.33;;;3.83;;
14139;SDS011;7150;53.514;9.988;2024-01-06T04:22:22;5.13;;;3.77;;
14139;SDS011;7150;53.514;9.988;2024-01-06T04:24:47;5.90;;;4.20;;
14139;SDS011;7150;53.514;9.988;2024-01-06T04:27:13;5.60;;;4.27;;
14139;SDS011;7150;53.514;9.988;2024-01-06T04:29:38;5.60;;;3.70;;
14139;SDS011;7150;53.514;9.988;2024-01-06T04:32:04;5.67;;;3.60;;
14139;SDS011;7150;53.514;9.988;2024-01-06T04:34:31;4.50;;;3.47;;
14139;SDS011;7150;53.514;9.988;2024-01-06T04:36:56;5.30;;;4.13;;
14139;SDS011;7150;53.514;9.988;2024-01-06T04:39:22;7.07;;;4.10;;
14139;SDS011;7150;53.514;9.988;2024-01-06T04:41:48;5.10;;;3.90;;
14139;SDS011;7150;53.514;9.988;2024-01-06T04:44:13;5.53;;;3.60;;
14139;SDS011;7150;53.514;9.988;2024-01-06T04:46:39;5.70;;;3.93;;
14139;SDS011;7150;53.514;9.988;2024-01-06T04:49:04;6.63;;;4.20;;
14139;SDS011;7150;53.514;9.988;2024-01-06T04:51:30;5.60;;;4.13;;
14139;SDS011;7150;53.514;9.988;2024-01-06T04:53:55;5.40;;;3.90;;
14139;SDS011;7150;53.514;9.988;2024-01-06T04:56:21;6.07;;;3.80;;
14139;SDS011;7150;53.514;9.988;2024-01-06T04:58:46;5.23;;;4.10;;
14139;SDS011;7150;53.514;9.988;2024-01-06T05:01:12;6.23;;;3.90;;
14139;SDS011;7150;53.514;9.988;2024-01-06T05:03:37;5.87;;;4.47;;
14139;SDS011;7150;53.514;9.988;2024-01-06T05:06:03;6.17;;;4.57;;
14139;SDS011;7150;53.514;9.988;2024-01-06T05:08:29;6.10;;;4.40;;
14139;SDS011;7150;53.514;9.988;2024-01-06T05:10:55;5.77;;;4.27;;
14139;SDS011;7150;53.514;9.988;2024-01-06T05:13:21;6.57;;;4.33;;
14139;SDS011;7150;53.514;9.988;2024-01-06T05:15:46;5.70;;;4.17;;
14139;SDS011;7150;53.514;9.988;2024-01-06T05:18:12;6.07;;;4.23;;
14139;SDS011;7150;53.514;9.988;2024-01-06T05:20:37;8.77;;;5.20;;
14139;SDS011;7150;53.514;9.988;2024-01-06T05:23:04;8.13;;;5.00;;
14139;SDS011;7150;53.514;9.988;2024-01-06T05:25:30;7.67;;;4.77;;
14139;SDS011;7150;53.514;9.988;2024-01-06T05:27:55;6.93;;;4.30;;
14139;SDS011;7150;53.514;9.988;2024-01-06T05:30:21;6.63;;;4.80;;
14139;SDS011;7150;53.514;9.988;2024-01-06T05:32:46;6.87;;;4.50;;
14139;SDS011;7150;53.514;9.988;2024-01-06T05:35:12;6.03;;;4.50;;
14139;SDS011;7150;53.514;9.988;2024-01-06T05:37:37;6.63;;;4.20;;
14139;SDS011;7150;53.514;9.988;2024-01-06T05:40:03;7.20;;;4.83;;
14139;SDS011;7150;53.514;9.988;2024-01-06T05:42:30;6.47;;;4.27;;
14139;SDS011;7150;53.514;9.988;2024-01-06T05:44:55;7.20;;;4.90;;
14139;SDS011;7150;53.514;9.988;2024-01-06T05:47:21;6.83;;;4.80;;
14139;SDS011;7150;53.514;9.988;2024-01-06T05:49:46;7.40;;;4.57;;
14139;SDS011;7150;53.514;9.988;2024-01-06T05:52:12;5.97;;;3.93;;
14139;SDS011;7150;53.514;9.988;2024-01-06T05:54:41;6.10;;;4.57;;
14139;SDS011;7150;53.514;9.988;2024-01-06T05:57:10;6.37;;;4.40;;
14139;SDS011;7150;53.514;9.988;2024-01-06T05:59:36;7.30;;;4.77;;
14139;SDS011;7150;53.514;9.988;2024-01-06T06:02:02;6.03;;;4.20;;
14139;SDS011;7150;53.514;9.988;2024-01-06T06:04:27;5.80;;;4.23;;
14139;SDS011;7150;53.514;9.988;2024-01-06T06:06:53;7.37;;;4.97;;
14139;SDS011;7150;53.514;9.988;2024-01-06T06:09:18;5.87;;;4.37;;
14139;SDS011;7150;53.514;9.988;2024-01-06T06:11:45;6.17;;;4.70;;
14139;SDS011;7150;53.514;9.988;2024-01-06T06:14:11;6.33;;;4.30;;
14139;SDS011;7150;53.514;9.988;2024-01-06T06:16:37;6.43;;;4.90;;
14139;SDS011;7150;53.514;9.988;2024-01-06T06:19:03;6.30;;;4.87;;
14139;SDS011;7150;53.514;9.988;2024-01-06T06:21:28;6.50;;;4.40;;
14139;SDS011;7150;53.514;9.988;2024-01-06T06:23:54;8.40;;;4.77;;
14139;SDS011;7150;53.514;9.988;2024-01-06T06:26:19;7.43;;;5.00;;
14139;SDS011;7150;53.514;9.988;2024-01-06T06:28:45;6.40;;;5.23;;
14139;SDS011;7150;53.514;9.988;2024-01-06T06:31:10;7.57;;;4.70;;
14139;SDS011;7150;53.514;9.988;2024-01-06T06:33:36;7.33;;;4.57;;
14139;SDS011;7150;53.514;9.988;2024-01-06T06:36:01;8.07;;;4.47;;
14139;SDS011;7150;53.514;9.988;2024-01-06T06:38:27;7.07;;;4.57;;
14139;SDS011;7150;53.514;9.988;2024-01-06T06:40:53;7.07;;;4.87;;
14139;SDS011;7150;53.514;9.988;2024-01-06T06:43:18;7.43;;;5.13;;
14139;SDS011;7150;53.514;9.988;2024-01-06T06:45:44;6.77;;;4.33;;
14139;SDS011;7150;53.514;9.988;2024-01-06T06:48:10;7.50;;;4.93;;
14139;SDS011;7150;53.514;9.988;2024-01-06T06:50:35;7.67;;;5.17;;
14139;SDS011;7150;53.514;9.988;2024-01-06T06:53:01;7.57;;;5.10;;
14139;SDS011;7150;53.514;9.988;2024-01-06T06:55:26;7.60;;;5.27;;
14139;SDS011;7150;53.514;9.988;2024-01-06T06:57:52;7.80;;;5.33;;
14139;SDS011;7150;53.514;9.988;2024-01-06T07:00:18;7.43;;;4.73;;
14139;SDS011;7150;53.514;9.988;2024-01-06T07:02:44;7.67;;;4.70;;
14139;SDS011;7150;53.514;9.988;2024-01-06T07:05:09;8.20;;;5.17;;
14139;SDS011;7150;53.514;9.988;2024-01-06T07:07:35;8.27;;;5.60;;
14139;SDS011;7150;53.514;9.988;2024-01-06T07:10:01;5.43;;;4.17;;
14139;SDS011;7150;53.514;9.988;2024-01-06T07:12:28;8.73;;;5.27;;
14139;SDS011;7150;53.514;9.988;2024-01-06T07:14:53;7.03;;;4.80;;
14139;SDS011;7150;53.514;9.988;2024-01-06T07:17:19;6.87;;;5.00;;
14139;SDS011;7150;53.514;9.988;2024-01-06T07:19:44;8.13;;;4.87;;
14139;SDS011;7150;53.514;9.988;2024-01-06T07:22:10;6.13;;;4.70;;
14139;SDS011;7150;53.514;9.988;2024-01-06T07:24:35;9.40;;;5.43;;
14139;SDS011;7150;53.514;9.988;2024-01-06T07:27:01;7.87;;;5.03;;
14139;SDS011;7150;53.514;9.988;2024-01-06T07:29:28;9.57;;;5.20;;
14139;SDS011;7150;53.514;9.988;2024-01-06T07:31:54;10.47;;;5.23;;
14139;SDS011;7150;53.514;9.988;2024-01-06T07:34:19;8.33;;;5.33;;
14139;SDS011;7150;53.514;9.988;2024-01-06T07:36:45;7.77;;;4.93;;
14139;SDS011;7150;53.514;9.988;2024-01-06T07:39:10;7.40;;;4.77;;
14139;SDS011;7150;53.514;9.988;2024-01-06T07:41:35;8.37;;;4.23;;
14139;SDS011;7150;53.514;9.988;2024-01-06T07:44:01;9.70;;;5.80;;
14139;SDS011;7150;53.514;9.988;2024-01-06T07:46:28;8.33;;;5.37;;
14139;SDS011;7150;53.514;9.988;2024-01-06T07:48:53;9.23;;;5.60;;
14139;SDS011;7150;53.514;9.988;2024-01-06T07:51:19;8.67;;;5.50;;
14139;SDS011;7150;53.514;9.988;2024-01-06T07:53:45;7.57;;;4.60;;
14139;SDS011;7150;53.514;9.988;2024-01-06T07:56:10;7.47;;;5.03;;
14139;SDS011;7150;53.514;9.988;2024-01-06T07:58:36;7.73;;;5.17;;
14139;SDS011;7150;53.514;9.988;2024-01-06T08:01:01;7.33;;;5.13;;
14139;SDS011;7150;53.514;9.988;2024-01-06T08:03:27;8.13;;;5.20;;
14139;SDS011;7150;53.514;9.988;2024-01-06T08:05:52;6.27;;;4.53;;
14139;SDS011;7150;53.514;9.988;2024-01-06T08:08:19;6.67;;;4.83;;
14139;SDS011;7150;53.514;9.988;2024-01-06T08:10:44;8.63;;;5.33;;
14139;SDS011;7150;53.514;9.988;2024-01-06T08:13:11;6.20;;;4.40;;
14139;SDS011;7150;53.514;9.988;2024-01-06T08:15:36;7.40;;;5.17;;
14139;SDS011;7150;53.514;9.988;2024-01-06T08:18:02;6.73;;;4.93;;
14139;SDS011;7150;53.514;9.988;2024-01-06T08:20:28;6.83;;;5.00;;
14139;SDS011;7150;53.514;9.988;2024-01-06T08:22:54;7.30;;;5.00;;
14139;SDS011;7150;53.514;9.988;2024-01-06T08:25:20;9.37;;;5.50;;
14139;SDS011;7150;53.514;9.988;2024-01-06T08:27:46;9.33;;;5.23;;
14139;SDS011;7150;53.514;9.988;2024-01-06T08:30:12;7.33;;;4.87;;
14139;SDS011;7150;53.514;9.988;2024-01-06T08:32:41;8.87;;;5.27;;
14139;SDS011;7150;53.514;9.988;2024-01-06T08:35:06;9.47;;;5.43;;
14139;SDS011;7150;53.514;9.988;2024-01-06T08:37:32;6.70;;;4.73;;
14139;SDS011;7150;53.514;9.988;2024-01-06T08:40:01;7.70;;;5.27;;
14139;SDS011;7150;53.514;9.988;2024-01-06T08:42:28;8.53;;;5.33;;
14139;SDS011;7150;53.514;9.988;2024-01-06T08:44:54;8.73;;;5.23;;
14139;SDS011;7150;53.514;9.988;2024-01-06T08:47:19;8.13;;;4.70;;
14139;SDS011;7150;53.514;9.988;2024-01-06T08:49:45;9.30;;;5.17;;
14139;SDS011;7150;53.514;9.988;2024-01-06T08:52:10;9.43;;;5.50;;
14139;SDS011;7150;53.514;9.988;2024-01-06T08:54:36;7.90;;;5.40;;
14139;SDS011;7150;53.514;9.988;2024-01-06T08:57:01;7.53;;;4.77;;
14139;SDS011;7150;53.514;9.988;2024-01-06T08:59:27;9.70;;;5.33;;
14139;SDS011;7150;53.514;9.988;2024-01-06T09:01:52;8.57;;;5.33;;
14139;SDS011;7150;53.514;9.988;2024-01-06T09:04:18;7.33;;;4.90;;
14139;SDS011;7150;53.514;9.988;2024-01-06T09:06:44;8.97;;;5.03;;
14139;SDS011;7150;53.514;9.988;2024-01-06T09:09:11;7.33;;;4.80;;
14139;SDS011;7150;53.514;9.988;2024-01-06T09:11:37;6.43;;;4.80;;
14139;SDS011;7150;53.514;9.988;2024-01-06T09:14:02;7.00;;;4.73;;
14139;SDS011;7150;53.514;9.988;2024-01-06T09:16:29;9.30;;;5.13;;
14139;SDS011;7150;53.514;9.988;2024-01-06T09:18:55;7.67;;;4.87;;
14139;SDS011;7150;53.514;9.988;2024-01-06T09:21:20;8.50;;;4.80;;
14139;SDS011;7150;53.514;9.988;2024-01-06T09:23:47;7.00;;;4.73;;
14139;SDS011;7150;53.514;9.988;2024-01-06T09:26:12;6.57;;;4.43;;
14139;SDS011;7150;53.514;9.988;2024-01-06T09:28:38;7.37;;;5.20;;
14139;SDS011;7150;53.514;9.988;2024-01-06T09:31:04;6.53;;;4.70;;
14139;SDS011;7150;53.514;9.988;2024-01-06T09:33:30;7.77;;;5.00;;
14139;SDS011;7150;53.514;9.988;2024-01-06T09:35:57;9.07;;;5.27;;
14139;SDS011;7150;53.514;9.988;2024-01-06T09:38:22;8.33;;;4.97;;
14139;SDS011;7150;53.514;9.988;2024-01-06T09:40:48;9.37;;;5.03;;
14139;SDS011;7150;53.514;9.988;2024-01-06T09:43:14;7.17;;;4.90;;
14139;SDS011;7150;53.514;9.988;2024-01-06T09:45:40;7.83;;;4.93;;
14139;SDS011;7150;53.514;9.988;2024-01-06T09:48:12;7.63;;;4.87;;
14139;SDS011;7150;53.514;9.988;2024-01-06T09:50:40;6.83;;;4.70;;
14139;SDS011;7150;53.514;9.988;2024-01-06T09:53:06;7.23;;;5.10;;
14139;SDS011;7150;53.514;9.988;2024-01-06T09:55:37;8.10;;;5.00;;
14139;SDS011;7150;53.514;9.988;2024-01-06T09:58:03;9.57;;;4.90;;
14139;SDS011;7150;53.514;9.988;2024-01-06T10:00:30;7.33;;;4.83;;
14139;SDS011;7150;53.514;9.988;2024-01-06T10:02:55;8.00;;;5.37;;
14139;SDS011;7150;53.514;9.988;2024-01-06T10:05:23;8.17;;;5.20;;
14139;SDS011;7150;53.514;9.988;2024-01-06T10:07:48;9.23;;;5.57;;
14139;SDS011;7150;53.514;9.988;2024-01-06T10:10:15;7.43;;;5.40;;
14139;SDS011;7150;53.514;9.988;2024-01-06T10:12:41;8.50;;;5.13;;
14139;SDS011;7150;53.514;9.988;2024-01-06T10:15:08;6.47;;;5.10;;
14139;SDS011;7150;53.514;9.988;2024-01-06T10:17:38;7.53;;;5.23;;
14139;SDS011;7150;53.514;9.988;2024-01-06T10:20:12;8.17;;;4.70;;
14139;SDS011;7150;53.514;9.988;2024-01-06T10:22:38;6.70;;;5.00;;
14139;SDS011;7150;53.514;9.988;2024-01-06T10:25:08;8.30;;;5.47;;
14139;SDS011;7150;53.514;9.988;2024-01-06T10:27:35;7.00;;;5.33;;
14139;SDS011;7150;53.514;9.988;2024-01-06T10:30:01;9.03;;;5.63;;
14139;SDS011;7150;53.514;9.988;2024-01-06T10:32:31;8.10;;;5.20;;
14139;SDS011;7150;53.514;9.988;2024-01-06T10:34:57;8.37;;;4.93;;
14139;SDS011;7150;53.514;9.988;2024-01-06T10:37:23;8.33;;;5.37;;
14139;SDS011;7150;53.514;9.988;2024-01-06T10:40:04;8.23;;;4.93;;
14139;SDS011;7150;53.514;9.988;2024-01-06T10:42:33;8.20;;;4.87;;
14139;SDS011;7150;53.514;9.988;2024-01-06T10:45:00;8.70;;;5.50;;
14139;SDS011;7150;53.514;9.988;2024-01-06T10:47:26;6.60;;;5.27;;
14139;SDS011;7150;53.514;9.988;2024-01-06T10:49:55;5.60;;;4.50;;
14139;SDS011;7150;53.514;9.988;2024-01-06T10:52:29;7.97;;;5.13;;
14139;SDS011;7150;53.514;9.988;2024-01-06T10:54:55;6.03;;;4.83;;
14139;SDS011;7150;53.514;9.988;2024-01-06T10:57:21;7.50;;;4.83;;
14139;SDS011;7150;53.514;9.988;2024-01-06T10:59:51;9.17;;;5.90;;
14139;SDS011;7150;53.514;9.988;2024-01-06T11:02:17;9.80;;;5.23;;
14139;SDS011;7150;53.514;9.988;2024-01-06T11:04:47;6.07;;;4.90;;
14139;SDS011;7150;53.514;9.988;2024-01-06T11:07:13;9.53;;;6.13;;
14139;SDS011;7150;53.514;9.988;2024-01-06T11:09:50;8.13;;;4.83;;
14139;SDS011;7150;53.514;9.988;2024-01-06T11:12:18;7.50;;;5.00;;
14139;SDS011;7150;53.514;9.988;2024-01-06T11:14:43;8.53;;;5.03;;
14139;SDS011;7150;53.514;9.988;2024-01-06T11:17:11;8.00;;;6.00;;
14139;SDS011;7150;53.514;9.988;2024-01-06T11:19:42;8.37;;;5.17;;
14139;SDS011;7150;53.514;9.988;2024-01-06T11:24:55;8.60;;;4.90;;
14139;SDS011;7150;53.514;9.988;2024-01-06T11:27:23;6.17;;;4.43;;
14139;SDS011;7150;53.514;9.988;2024-01-06T11:29:58;7.77;;;4.83;;
14139;SDS011;7150;53.514;9.988;2024-01-06T11:32:29;8.77;;;4.97;;
14139;SDS011;7150;53.514;9.988;2024-01-06T11:35:07;5.63;;;4.47;;
14139;SDS011;7150;53.514;9.988;2024-01-06T11:42:46;8.20;;;4.53;;
14139;SDS011;7150;53.514;9.988;2024-01-06T11:45:12;7.47;;;4.30;;
14139;SDS011;7150;53.514;9.988;2024-01-06T11:47:39;6.50;;;4.47;;
14139;SDS011;7150;53.514;9.988;2024-01-06T11:50:06;5.27;;;3.93;;
14139;SDS011;7150;53.514;9.988;2024-01-06T11:52:32;6.60;;;4.03;;
14139;SDS011;7150;53.514;9.988;2024-01-06T11:54:58;6.97;;;3.70;;
14139;SDS011;7150;53.514;9.988;2024-01-06T11:57:27;6.83;;;4.30;;
14139;SDS011;7150;53.514;9.988;2024-01-06T11:59:53;7.40;;;4.27;;
14139;SDS011;7150;53.514;9.988;2024-01-06T12:02:19;4.83;;;3.77;;
14139;SDS011;7150;53.514;9.988;2024-01-06T12:04:50;6.10;;;4.10;;
14139;SDS011;7150;53.514;9.988;2024-01-06T12:07:17;6.47;;;3.80;;
14139;SDS011;7150;53.514;9.988;2024-01-06T12:09:44;6.93;;;4.13;;
14139;SDS011;7150;53.514;9.988;2024-01-06T12:12:32;7.40;;;3.57;;
14139;SDS011;7150;53.514;9.988;2024-01-06T12:14:58;5.60;;;3.60;;
14139;SDS011;7150;53.514;9.988;2024-01-06T12:17:23;4.73;;;3.67;;
14139;SDS011;7150;53.514;9.988;2024-01-06T12:19:54;4.63;;;3.60;;
14139;SDS011;7150;53.514;9.988;2024-01-06T12:22:20;4.33;;;3.70;;
14139;SDS011;7150;53.514;9.988;2024-01-06T12:24:48;5.17;;;3.30;;
14139;SDS011;7150;53.514;9.988;2024-01-06T12:27:16;5.80;;;3.80;;
14139;SDS011;7150;53.514;9.988;2024-01-06T12:29:42;6.03;;;4.03;;
14139;SDS011;7150;53.514;9.988;2024-01-06T12:32:09;6.17;;;3.80;;
14139;SDS011;7150;53.514;9.988;2024-01-06T12:34:35;4.90;;;3.60;;
14139;SDS011;7150;53.514;9.988;2024-01-06T12:37:01;5.57;;;3.40;;
14139;SDS011;7150;53.514;9.988;2024-01-06T12:39:27;5.97;;;3.73;;
14139;SDS011;7150;53.514;9.988;2024-01-06T12:41:54;6.33;;;3.40;;
14139;SDS011;7150;53.514;9.988;2024-01-06T12:44:20;7.60;;;3.93;;
14139;SDS011;7150;53.514;9.988;2024-01-06T12:46:46;5.37;;;3.20;;
14139;SDS011;7150;53.514;9.988;2024-01-06T12:49:12;4.97;;;3.50;;
14139;SDS011;7150;53.514;9.988;2024-01-06T12:51:38;5.07;;;3.53;;
14139;SDS011;7150;53.514;9.988;2024-01-06T12:54:04;6.17;;;4.07;;
14139;SDS011;7150;53.514;9.988;2024-01-06T12:56:29;6.97;;;4.13;;
14139;SDS011;7150;53.514;9.988;2024-01-06T12:58:55;6.60;;;3.93;;
14139;SDS011;7150;53.514;9.988;2024-01-06T13:01:21;7.13;;;4.00;;
14139;SDS011;7150;53.514;9.988;2024-01-06T13:03:46;7.27;;;4.67;;
14139;SDS011;7150;53.514;9.988;2024-01-06T13:06:12;6.57;;;3.73;;
14139;SDS011;7150;53.514;9.988;2024-01-06T13:08:38;9.80;;;4.57;;
14139;SDS011;7150;53.514;9.988;2024-01-06T13:11:04;6.73;;;3.60;;
14139;SDS011;7150;53.514;9.988;2024-01-06T13:13:29;5.13;;;3.67;;
14139;SDS011;7150;53.514;9.988;2024-01-06T13:15:59;5.43;;;3.30;;
14139;SDS011;7150;53.514;9.988;2024-01-06T13:18:28;4.73;;;3.20;;
14139;SDS011;7150;53.514;9.988;2024-01-06T13:20:55;3.63;;;2.90;;
14139;SDS011;7150;53.514;9.988;2024-01-06T13:23:21;3.90;;;3.10;;
14139;SDS011;7150;53.514;9.988;2024-01-06T13:25:48;4.60;;;3.10;;
14139;SDS011;7150;53.514;9.988;2024-01-06T13:28:13;5.93;;;3.50;;
14139;SDS011;7150;53.514;9.988;2024-01-06T13:30:40;4.80;;;3.10;;
14139;SDS011;7150;53.514;9.988;2024-01-06T13:33:07;4.13;;;2.90;;
14139;SDS011;7150;53.514;9.988;2024-01-06T13:35:34;4.70;;;3.20;;
14139;SDS011;7150;53.514;9.988;2024-01-06T13:38:01;4.10;;;2.87;;
14139;SDS011;7150;53.514;9.988;2024-01-06T13:40:29;4.47;;;3.20;;
14139;SDS011;7150;53.514;9.988;2024-01-06T13:42:55;5.23;;;2.90;;
14139;SDS011;7150;53.514;9.988;2024-01-06T13:45:21;4.60;;;2.60;;
14139;SDS011;7150;53.514;9.988;2024-01-06T13:47:47;4.00;;;2.63;;
14139;SDS011;7150;53.514;9.988;2024-01-06T13:50:13;3.63;;;2.80;;
14139;SDS011;7150;53.514;9.988;2024-01-06T13:52:40;3.63;;;2.70;;
14139;SDS011;7150;53.514;9.988;2024-01-06T13:55:06;3.93;;;2.77;;
14139;SDS011;7150;53.514;9.988;2024-01-06T13:57:33;5.70;;;3.33;;
14139;SDS011;7150;53.514;9.988;2024-01-06T13:59:59;5.87;;;3.33;;
14139;SDS011;7150;53.514;9.988;2024-01-06T14:02:25;3.97;;;3.03;;
14139;SDS011;7150;53.514;9.988;2024-01-06T14:04:51;4.73;;;2.80;;
14139;SDS011;7150;53.514;9.988;2024-01-06T14:07:17;4.10;;;3.10;;
14139;SDS011;7150;53.514;9.988;2024-01-06T14:09:47;4.90;;;3.07;;
14139;SDS011;7150;53.514;9.988;2024-01-06T14:12:16;4.27;;;2.77;;
14139;SDS011;7150;53.514;9.988;2024-01-06T14:14:41;4.20;;;2.93;;
14139;SDS011;7150;53.514;9.988;2024-01-06T14:17:07;4.13;;;2.80;;
14139;SDS011;7150;53.514;9.988;2024-01-06T14:19:33;4.43;;;2.67;;
14139;SDS011;7150;53.514;9.988;2024-01-06T14:21:59;3.57;;;2.40;;
14139;SDS011;7150;53.514;9.988;2024-01-06T14:24:24;3.70;;;2.50;;
14139;SDS011;7150;53.514;9.988;2024-01-06T14:26:50;3.50;;;2.63;;
14139;SDS011;7150;53.514;9.988;2024-01-06T14:29:19;3.73;;;3.00;;
14139;SDS011;7150;53.514;9.988;2024-01-06T14:31:44;3.23;;;2.43;;
14139;SDS011;7150;53.514;9.988;2024-01-06T14:34:10;2.80;;;2.40;;
14139;SDS011;7150;53.514;9.988;2024-01-06T14:36:36;4.60;;;2.60;;
14139;SDS011;7150;53.514;9.988;2024-01-06T14:39:01;3.57;;;2.73;;
14139;SDS011;7150;53.514;9.988;2024-01-06T14:41:29;3.63;;;2.63;;
14139;SDS011;7150;53.514;9.988;2024-01-06T14:43:54;3.80;;;2.80;;
14139;SDS011;7150;53.514;9.988;2024-01-06T14:46:20;5.40;;;2.50;;
14139;SDS011;7150;53.514;9.988;2024-01-06T14:48:45;4.93;;;2.70;;
14139;SDS011;7150;53.514;9.988;2024-01-06T14:51:11;4.80;;;2.90;;
14139;SDS011;7150;53.514;9.988;2024-01-06T14:53:36;3.27;;;2.77;;
14139;SDS011;7150;53.514;9.988;2024-01-06T14:56:02;4.23;;;2.53;;
14139;SDS011;7150;53.514;9.988;2024-01-06T14:58:28;3.13;;;2.63;;
14139;SDS011;7150;53.514;9.988;2024-01-06T15:00:54;3.90;;;2.90;;
14139;SDS011;7150;53.514;9.988;2024-01-06T15:03:20;4.73;;;2.67;;